Date,TemperatureHighF,TemperatureAvgF,TemperatureLowF,DewpointHighF,DewpointAvgF,DewpointLowF,HumidityHigh,HumidityAvg,HumidityLow,PressureMaxIn,PressureMinIn,WindSpeedMaxMPH,WindSpeedAvgMPH,GustSpeedMaxMPH,PrecipitationSumIn
2013-1-1,44,40,36,44,36,24,100,85,48,30.04,29.90,1,0,5,0.40
2013-1-2,42,39,35,42,38,34,100,97,90,30.04,29.84,0,0,3,0.27
2013-1-3,40,35,27,37,33,25,100,95,82,30.18,30.00,1,0,3,0.00
2013-1-4,42,29,23,29,24,21,94,80,59,30.25,30.14,0,0,5,0.32
2013-1-5,47,33,23,27,23,19,88,67,40,30.28,30.15,1,0,7,0.32
2013-1-6,48,40,33,40,35,31,94,82,73,30.11,30.00,0,0,6,0.00
2013-1-9,48,47,46,48,47,46,100,100,100,30.40,30.35,0,0,2,0.00
2013-1-10,61,51,43,53,48,43,100,92,73,30.44,30.28,1,0,3,0.01
2013-1-11,55,49,46,55,49,46,100,100,99,30.28,30.09,1,0,3,2.06
2013-1-12,67,59,55,63,58,55,100,97,81,30.13,30.06,1,0,8,1.12
2013-1-13,64,59,56,58,57,56,100,93,81,30.10,30.03,4,1,16,1.06
2013-1-14,59,56,45,59,56,45,100,100,100,30.11,30.00,2,0,8,0.34
2013-1-15,51,47,43,51,47,43,100,100,100,30.10,29.96,0,0,2,1.21
2013-1-16,53,48,43,53,48,43,100,100,100,29.96,29.89,1,0,3,1.12
2013-1-17,51,43,31,51,43,31,100,100,100,30.10,29.69,5,1,12,1.41
2013-1-18,49,35,27,32,26,22,99,72,42,30.40,30.10,3,1,10,0.08
2013-1-19,55,36,26,31,27,24,96,73,32,30.37,30.09,3,0,7,0.04
2013-1-20,59,40,29,38,30,25,88,68,44,30.09,29.97,1,0,3,0.00
2013-1-21,54,36,26,33,26,17,98,71,39,30.02,29.88,3,0,7,0.00
2013-1-22,35,26,20,18,9,2,70,50,27,30.12,29.92,3,1,6,0.00
2013-1-23,45,28,17,23,14,3,70,54,36,30.20,29.98,1,0,3,0.00
2013-1-24,41,33,22,27,18,7,80,56,37,30.32,29.90,4,1,10,0.00
2013-1-25,31,24,19,31,18,5,100,79,50,30.32,29.95,3,0,9,0.05
2013-1-26,40,33,29,34,30,27,100,92,71,30.24,29.99,1,0,4,0.00
2013-1-27,44,33,25,34,29,25,100,86,62,30.39,30.23,2,0,5,0.00
2013-1-28,60,45,36,49,41,30,100,84,67,30.33,30.16,5,1,11,0.00
2013-1-29,68,53,41,57,49,39,100,88,60,30.19,29.99,3,1,11,0.02
2013-1-30,59,56,43,59,56,43,100,99,92,29.97,29.42,7,3,19,8.26
2013-1-31,48,36,29,40,23,20,95,61,46,29.91,29.49,4,1,11,0.96
2013-2-1,38,29,18,32,17,9,81,60,44,30.21,29.82,4,1,10,0.41
2013-2-2,39,28,17,31,20,11,100,74,34,30.21,29.91,4,1,8,0.00
2013-2-3,51,32,28,33,26,22,100,79,39,29.92,29.80,2,0,12,0.01
2013-2-4,48,33,23,26,22,19,87,68,36,30.02,29.88,2,0,10,0.01
2013-2-5,59,43,30,38,29,24,79,61,36,29.93,29.83,2,0,6,0.00
2013-2-6,62,44,33,36,30,25,93,61,32,30.14,29.93,1,0,6,0.00
2013-2-7,42,39,36,40,33,22,100,80,49,30.16,29.92,1,0,3,0.40
2013-2-8,48,41,34,47,39,29,100,91,70,30.03,29.85,4,1,12,0.25
2013-2-9,59,38,27,27,22,12,85,57,18,30.22,30.02,3,0,8,0.00
2013-2-10,49,39,34,41,30,24,100,73,41,30.29,30.10,3,0,8,0.59
2013-2-11,56,48,41,54,44,29,100,89,45,30.10,29.92,2,1,7,9.92
2013-2-12,51,43,37,40,32,27,100,67,44,30.04,29.86,3,0,11,0.03
2013-2-13,50,39,33,45,37,29,100,94,74,29.86,29.55,4,1,12,0.15
2013-2-14,53,38,28,35,30,27,97,75,37,29.97,29.80,2,0,6,0.00
2013-2-15,61,39,26,38,30,25,99,75,31,30.02,29.86,3,0,10,0.00
2013-2-16,36,29,21,32,24,12,97,80,60,29.91,29.75,5,1,19,0.02
2013-2-17,43,26,18,17,10,6,71,51,29,30.11,29.88,4,1,10,9.88
2013-2-18,53,34,19,26,19,10,84,56,35,30.24,30.08,3,0,7,9.88
2013-2-19,58,39,32,45,29,17,100,70,36,30.08,29.78,3,1,14,1.01
2013-2-20,48,34,25,20,13,10,58,44,26,30.03,29.92,3,1,10,0.00
2013-2-21,60,38,23,38,18,12,98,50,16,30.11,29.97,1,0,3,0.27
2013-2-22,37,35,32,37,35,32,100,100,100,30.15,30.00,1,0,3,1.16
2013-2-23,50,43,36,50,43,36,100,100,99,30.01,29.75,0,0,5,0.25
2013-2-24,59,43,35,45,35,25,100,77,39,29.97,29.78,3,0,7,0.01
2013-2-25,44,36,29,31,27,25,97,71,50,30.06,29.91,1,0,3,0.02
2013-2-26,38,34,31,38,34,31,100,100,100,29.95,29.49,1,0,3,1.40
2013-2-27,56,41,30,40,33,28,100,77,45,29.71,29.53,5,0,12,1.28
2013-2-28,47,36,31,34,27,23,90,70,51,29.80,29.64,3,1,7,1.28
2013-3-1,40,34,30,31,27,25,85,77,66,29.83,29.77,4,1,7,0.00
2013-3-2,44,33,26,33,27,20,100,82,50,29.83,29.73,3,1,11,1.28
2013-3-3,41,28,21,24,19,14,86,70,45,29.89,29.80,4,1,9,1.28
2013-3-4,52,35,21,24,18,13,79,53,25,30.02,29.34,2,1,7,0.00
2013-3-5,47,42,37,46,36,25,100,82,54,29.98,29.56,2,0,6,0.71
2013-3-6,40,31,26,31,26,19,92,80,65,30.04,29.59,7,2,16,0.64
2013-3-7,52,34,26,34,27,22,90,76,48,30.18,30.02,4,1,11,0.01
2013-3-8,59,37,22,28,23,13,99,64,24,30.22,30.14,3,1,8,0.00
2013-3-9,64,43,25,31,26,20,86,55,27,30.25,30.14,2,0,6,0.00
2013-3-10,63,49,36,35,32,30,82,56,31,30.20,30.08,3,0,8,0.00
2013-3-11,53,49,46,51,46,34,100,91,59,30.11,29.79,5,1,11,0.77
2013-3-12,57,47,37,50,42,29,100,84,58,29.95,29.71,5,1,10,1.15
2013-3-13,56,40,28,31,26,19,90,61,31,30.04,29.93,4,1,12,0.03
2013-3-14,49,34,22,21,17,14,72,52,26,30.19,30.04,5,1,10,0.00
2013-3-15,71,46,26,41,27,16,76,52,23,30.11,29.87,2,0,11,0.00
2013-3-16,76,63,52,46,42,41,66,49,28,29.88,29.72,4,1,12,0.00
2013-3-17,72,60,50,49,45,43,82,60,37,29.98,29.82,3,0,10,0.00
2013-3-18,50,40,36,45,39,36,100,98,82,30.00,29.80,1,0,3,0.29
2013-3-19,64,47,35,41,34,19,100,68,28,30.01,29.79,5,1,12,1.50
2013-3-20,60,42,33,32,15,4,87,36,16,30.01,29.74,6,1,13,0.01
2013-3-21,47,31,19,31,21,13,100,69,35,29.84,29.68,4,1,11,0.07
2013-3-22,47,34,23,25,18,12,77,55,30,29.93,29.83,3,0,8,0.01
2013-3-23,62,44,35,45,35,24,94,73,52,29.93,29.79,2,0,5,1.50
2013-3-24,44,40,37,42,40,37,100,99,86,29.83,29.46,1,0,6,1.64
2013-3-25,42,34,28,38,27,20,100,77,51,29.79,29.45,3,1,13,0.18
2013-3-26,41,32,26,27,23,20,85,71,55,30.07,29.79,3,1,11,0.11
2013-3-27,50,36,26,30,25,19,81,64,42,30.16,30.07,4,1,12,0.00
2013-3-28,61,40,28,26,21,14,80,52,21,30.20,30.09,3,1,8,0.00
2013-3-29,57,40,25,40,26,18,100,63,25,30.24,30.14,2,0,7,0.02
2013-3-30,62,48,38,46,40,38,100,78,43,30.17,29.99,3,0,8,0.08
2013-3-31,63,52,45,54,48,-100,100,91,58,30.00,29.80,4,0,9,1.66
2013-4-1,70,53,42,52,44,33,100,74,37,29.94,29.80,3,0,7,1.63
2013-4-2,63,48,34,35,29,22,80,53,24,30.08,29.93,2,0,6,1.63
2013-4-3,62,48,37,29,22,18,50,37,24,30.17,30.05,2,0,5,0.00
2013-4-4,46,42,34,35,29,24,98,64,42,30.18,30.14,1,0,3,1.66
2013-4-5,50,47,44,38,36,35,72,66,62,30.01,29.94,1,0,3,0.00
2013-4-6,67,50,34,39,34,31,93,58,28,30.17,30.00,2,0,8,0.00
2013-4-7,67,55,42,45,40,33,76,57,42,30.16,30.04,5,1,14,0.00
2013-4-8,71,59,45,53,47,42,90,67,47,30.12,30.03,5,1,14,0.00
2013-4-9,80,65,50,57,52,47,94,66,42,30.18,30.08,3,0,8,0.00
2013-4-10,84,68,53,58,54,51,92,64,39,30.11,29.94,3,0,11,0.00
2013-4-11,75,65,57,63,56,53,100,75,48,29.97,29.68,4,1,14,0.40
2013-4-12,78,62,49,63,53,40,100,77,39,29.85,29.62,4,1,12,1.69
2013-4-13,75,57,45,44,38,32,76,52,22,30.02,29.82,2,0,7,0.54
2013-4-14,68,54,40,51,41,34,95,63,35,30.07,29.95,2,0,8,0.00
2013-4-15,64,55,50,58,53,50,100,96,80,30.17,29.93,0,0,3,0.21
2013-4-16,78,63,55,61,57,54,100,82,54,30.26,30.16,2,0,6,0.01
2013-4-17,78,62,56,64,58,55,100,91,59,30.24,30.12,2,0,7,0.11
2013-4-18,73,62,55,62,58,55,100,86,57,30.13,29.96,3,0,11,0.28
2013-4-19,63,58,42,63,58,40,100,98,92,29.96,29.73,5,2,19,0.62
2013-4-20,65,48,34,40,34,27,95,61,35,30.22,29.89,4,1,11,0.13
2013-4-21,64,48,33,38,33,28,93,61,34,30.36,30.22,2,0,6,0.13
2013-4-22,65,51,42,41,38,33,85,63,37,30.34,30.15,2,0,7,0.00
2013-4-23,72,53,34,46,38,31,93,61,33,30.22,30.04,2,0,6,0.00
2013-4-24,68,58,49,58,51,45,98,78,60,30.11,29.98,6,1,13,0.01
2013-4-25,75,55,39,52,36,26,94,57,23,30.27,30.05,2,1,6,0.03
2013-4-26,68,54,38,42,34,29,77,50,29,30.37,30.25,2,0,5,0.01
2013-4-27,55,51,48,51,47,39,100,90,54,30.34,30.20,0,0,2,0.79
2013-4-28,50,48,45,50,47,-100,100,100,100,30.21,29.97,1,0,2,2.30
2013-4-29,70,57,49,61,54,49,100,91,71,30.04,29.90,1,0,3,2.32
2013-4-30,74,60,47,59,54,47,100,83,52,30.14,29.95,1,0,3,2.27
2013-5-1,63,57,54,56,53,51,95,86,69,30.25,30.14,1,0,6,0.00
2013-5-2,57,54,52,56,53,51,100,98,92,30.27,30.19,0,0,3,0.08
2013-5-3,55,52,49,53,51,49,100,97,88,30.21,30.04,1,0,6,0.05
2013-5-4,51,47,45,51,46,42,100,96,87,30.04,29.93,2,0,10,0.62
2013-5-5,47,46,44,47,46,44,100,100,100,29.95,29.78,2,0,7,2.80
2013-5-6,63,52,45,52,48,44,100,85,54,29.87,29.74,2,0,6,1.31
2013-5-7,73,52,39,53,46,39,100,82,33,29.93,29.82,1,0,5,0.52
2013-5-8,65,55,46,57,52,46,100,90,70,30.03,29.88,0,0,3,0.00
2013-5-9,75,60,45,60,54,45,100,83,54,30.10,30.00,0,0,3,0.00
2013-5-10,75,61,50,59,53,-100,100,81,55,30.11,29.96,6,1,17,0.00
2013-5-11,71,62,56,64,58,53,100,86,67,29.97,29.83,2,0,6,0.13
2013-5-12,70,55,47,56,45,-100,100,74,42,30.03,29.86,3,1,7,2.73
2013-5-13,70,52,40,39,34,28,78,54,27,30.14,30.03,4,1,10,0.01
2013-5-14,71,54,36,52,41,32,91,64,34,30.21,30.06,2,0,7,0.01
2013-5-15,89,67,51,60,54,49,94,68,37,30.11,29.97,3,0,6,0.00
2013-5-16,77,60,53,59,34,-100,94,71,46,30.07,29.97,0,0,6,0.00
2013-5-17,78,65,55,62,51,-100,99,78,50,30.12,30.03,2,0,6,0.00
2013-5-18,64,61,58,63,60,56,100,97,77,30.13,30.05,0,0,6,1.05
2013-5-19,71,64,60,66,62,60,100,96,85,30.10,30.03,1,0,5,0.16
2013-5-20,79,65,59,67,62,59,100,92,62,30.13,30.04,0,0,2,0.02
2013-5-21,83,66,57,69,62,57,100,89,59,30.09,29.96,0,0,2,0.02
2013-5-22,80,67,59,67,63,59,100,89,57,30.03,29.89,3,0,6,0.55
2013-5-23,76,64,58,69,61,56,100,90,59,29.96,29.86,3,0,6,0.37
2013-5-24,71,59,53,58,49,41,93,71,46,30.19,29.91,6,1,12,0.05
2013-5-25,78,58,43,48,42,37,87,59,29,30.30,30.16,3,0,6,0.00
2013-5-26,74,58,48,53,44,-100,97,68,45,30.27,30.15,1,0,3,2.92
2013-5-27,76,63,49,59,55,49,100,75,51,30.25,30.15,1,0,4,2.92
2013-5-28,80,67,57,62,59,56,98,77,49,30.23,30.16,2,0,5,0.00
2013-5-29,81,68,59,64,60,58,99,78,54,30.24,30.16,1,0,4,0.00
2013-5-30,78,69,58,65,61,57,100,77,57,30.29,30.18,0,0,2,0.00
2013-5-31,77,68,60,64,61,59,100,79,59,30.24,30.13,2,0,5,0.00
2013-6-1,78,70,63,64,62,60,96,78,59,30.16,30.04,2,0,10,0.00
2013-6-2,70,64,62,70,63,-100,100,99,87,30.08,29.93,0,0,3,1.81
2013-6-3,73,66,61,70,64,60,100,92,74,30.01,29.88,0,0,0,1.60
2013-6-4,79,67,57,66,62,57,100,85,59,30.11,29.97,0,0,0,0.65
2013-6-5,74,67,63,67,65,63,100,91,77,30.11,29.97,2,0,4,0.20
2013-6-6,72,66,61,69,64,61,100,96,83,30.02,29.81,0,0,5,0.45
2013-6-7,77,66,61,72,65,61,100,97,77,29.87,28.73,1,0,4,3.20
2013-6-8,79,67,59,70,64,59,100,91,69,30.12,29.85,1,0,5,0.86
2013-6-9,74,66,61,72,65,61,100,97,82,30.17,30.06,3,0,6,1.09
2013-6-10,73,66,63,68,65,61,100,95,69,30.08,29.93,2,0,7,1.94
2013-6-11,85,70,60,70,65,60,100,86,55,30.06,29.95,1,0,3,0.05
2013-6-12,83,68,60,73,65,60,100,92,70,30.08,29.98,0,0,1,0.05
2013-6-13,89,73,63,70,66,61,100,80,42,29.99,29.78,2,0,8,0.00
2013-6-14,80,68,58,64,58,54,94,71,43,30.06,29.85,4,1,8,0.01
2013-6-15,79,66,52,64,58,51,99,77,51,30.17,30.06,1,0,3,0.01
2013-6-16,80,69,58,66,62,57,96,78,54,30.17,30.04,1,0,5,0.00
2013-6-17,76,69,65,72,68,65,100,94,86,30.07,29.89,1,0,4,0.12
2013-6-18,79,68,63,70,66,61,100,93,70,30.01,29.85,1,0,7,0.07
2013-6-19,77,68,59,66,63,59,100,85,64,30.15,29.94,0,0,1,0.04
2013-6-20,76,66,60,66,62,60,100,90,69,30.24,30.13,0,0,2,0.03
2013-6-22,85,78,72,62,60,55,70,55,43,30.28,30.14,0,0,0,0.00
2013-6-23,83,68,58,69,64,58,100,88,61,30.25,30.15,0,0,0,0.27
2013-6-24,79,70,63,74,67,63,100,92,72,30.27,30.15,0,0,5,0.42
2013-6-25,83,68,61,71,66,61,100,94,59,30.20,30.08,0,0,2,0.14
2013-6-26,82,70,61,75,67,61,100,93,68,30.09,29.97,0,0,0,0.36
2013-6-29,72,72,72,64,64,64,77,77,77,29.70,29.70,0,0,0,0.00
2013-7-3,66,64,61,66,64,61,100,100,100,30.25,30.18,0,0,1,3.21
2013-7-4,65,64,62,65,64,62,100,100,100,30.24,30.22,0,0,0,2.84
2013-7-5,66,66,65,66,66,65,100,100,100,30.27,30.23,0,0,1,4.77
2013-7-6,70,70,70,68,68,68,95,95,95,30.19,30.19,0,0,0,0.00
2013-7-9,73,73,73,71,71,71,94,94,94,30.13,30.13,0,0,1,0.00
2013-7-10,66,66,66,66,66,66,100,100,100,30.04,30.04,0,0,3,0.00
2013-7-12,76,69,64,72,68,64,100,97,88,30.01,29.96,0,0,0,0.04
2013-7-13,70,70,69,68,68,68,95,94,93,30.11,30.11,0,0,0,0.00
2013-7-14,68,66,64,68,66,64,100,100,100,30.32,30.22,0,0,7,0.42
2013-7-15,78,70,64,71,67,64,100,92,78,30.37,30.30,0,0,2,0.20
2013-7-16,90,74,65,76,69,65,100,87,59,30.39,30.28,0,0,0,0.05
2013-7-17,85,71,65,76,69,65,100,95,67,30.34,30.22,1,0,3,0.67
2013-7-18,83,72,64,74,69,64,100,90,73,30.27,30.12,0,0,1,0.46
2013-7-19,87,73,64,75,69,64,100,90,59,30.19,30.06,0,0,2,0.00
2013-7-20,84,71,66,74,68,-100,100,94,69,30.10,29.99,0,0,0,0.00
2013-7-21,82,69,65,75,68,65,100,97,71,30.06,29.99,0,0,0,0.90
2013-7-22,81,70,64,74,68,64,100,94,74,30.04,29.89,0,0,6,0.71
2013-7-23,82,71,61,72,67,61,100,89,64,29.96,29.85,0,0,2,0.55
2013-7-24,83,71,64,74,68,64,100,90,65,29.91,29.83,3,0,6,0.02
2013-7-25,84,69,62,71,66,62,100,90,59,30.08,29.89,0,0,0,0.09
2013-7-26,79,68,59,71,65,59,100,92,69,30.14,30.04,1,0,6,0.44
2013-7-27,75,69,64,72,68,64,100,94,79,30.08,29.94,0,0,0,1.12
2013-7-28,82,70,63,71,66,63,100,88,61,30.07,29.94,0,0,2,0.01
2013-7-29,84,68,58,69,63,58,100,86,58,30.22,30.06,0,0,0,0.00
2013-7-30,78,68,57,70,64,57,100,88,70,30.27,30.18,0,0,0,0.00
2013-7-31,71,68,65,70,67,65,100,99,91,30.21,30.01,0,0,2,0.35
2013-8-1,78,69,64,74,68,64,100,97,77,30.02,29.94,0,0,7,0.31
2013-8-2,78,68,61,72,66,61,100,94,74,30.09,29.98,0,0,0,0.01
2013-8-3,82,71,65,72,68,65,100,90,70,30.08,30.03,0,0,0,0.01
2013-8-4,82,70,62,72,67,62,100,90,69,30.09,30.01,2,0,6,0.00
2013-8-5,79,69,60,70,65,60,100,88,70,30.11,30.00,2,0,5,0.10
2013-8-6,80,71,67,72,69,67,100,94,75,30.09,29.99,0,0,0,0.17
2013-8-7,69,68,66,69,68,66,100,100,100,30.12,30.05,0,0,2,1.56
2013-8-8,79,70,65,73,69,65,100,97,80,30.11,30.05,0,0,3,0.14
2013-8-9,80,72,67,74,70,67,100,94,77,30.13,30.06,1,0,3,0.02
2013-8-10,80,71,66,77,70,66,100,99,85,30.18,30.10,1,0,4,0.97
2013-8-11,82,69,64,76,69,64,100,99,79,30.21,30.11,0,0,1,1.13
2013-8-12,84,69,65,75,68,65,100,97,74,30.17,30.02,3,0,6,1.60
2013-8-13,77,68,65,74,66,-100,100,97,83,30.03,29.88,2,0,6,1.60
2013-8-14,77,65,61,69,61,-100,100,90,68,30.09,29.93,1,0,5,0.01
2013-8-15,64,56,58,62,44,-100,100,88,82,30.16,30.07,0,0,2,0.05
2013-8-16,69,60,56,63,54,-100,100,91,75,30.19,30.09,0,0,2,0.03
2013-8-17,65,61,57,62,60,56,100,96,84,30.19,30.13,0,0,3,0.15
2013-8-18,72,63,60,69,61,-100,100,96,83,30.23,30.14,0,0,3,0.23
2013-8-19,71,61,62,69,50,-100,100,98,94,30.23,30.13,0,0,1,6.29
2013-8-20,76,66,63,71,64,-100,100,98,81,30.24,30.14,0,0,1,0.39
2013-8-21,71,67,65,71,67,65,100,100,97,30.27,30.16,0,0,1,0.25
2013-8-22,80,68,62,74,68,62,100,98,78,30.22,30.08,0,0,2,0.47
2013-8-23,83,69,60,74,67,60,100,93,68,30.13,30.02,0,0,2,6.25
2013-8-24,78,67,62,68,64,58,100,90,66,30.33,30.11,0,0,3,6.25
2013-8-25,75,63,53,64,57,-100,100,86,61,30.41,30.29,0,0,0,0.00
2013-8-26,79,65,53,69,60,53,100,87,58,30.36,30.16,1,0,3,0.00
2013-8-27,83,65,56,73,62,56,100,93,68,30.21,30.09,1,0,3,0.00
2013-8-28,85,79,69,75,72,67,95,79,68,30.09,29.43,0,0,0,0.00
2013-8-29,86,72,64,76,69,64,100,91,72,30.05,29.97,0,0,3,0.00
2013-8-30,71,69,68,70,68,68,100,99,94,30.08,30.04,0,0,0,0.00
2013-9-4,74,72,71,69,68,68,91,88,85,30.10,30.07,0,0,0,0.00
2013-9-5,73,70,68,62,60,58,73,71,69,30.14,30.11,0,0,0,0.00
2013-9-7,70,69,69,67,67,67,92,91,89,30.06,30.06,0,0,0,0.00
2013-9-8,78,76,74,70,69,68,85,80,74,30.01,29.98,0,0,0,0.00
2013-9-10,73,66,60,69,64,60,100,93,86,30.25,30.22,0,0,0,0.00
2013-9-11,80,72,69,72,69,68,98,91,76,30.24,30.12,0,0,0,0.00
2013-9-13,78,67,59,66,58,53,100,75,59,29.95,29.84,3,1,8,0.00
2013-9-14,74,61,51,60,54,50,100,81,54,30.12,29.93,1,0,3,0.00
2013-9-15,74,59,51,62,54,-100,100,89,66,30.22,30.12,1,0,6,0.00
2013-9-16,78,64,53,67,60,53,100,89,66,30.19,30.11,0,0,1,0.00
2013-9-17,66,62,59,63,58,55,95,86,73,30.31,30.18,0,0,2,0.00
2013-9-18,59,58,55,58,55,54,98,92,86,30.26,30.20,0,0,0,0.00
2013-9-19,75,64,58,69,63,58,100,97,71,30.21,30.09,0,0,1,0.17
2013-9-20,80,66,57,71,64,57,100,93,69,30.11,29.96,0,0,3,0.04
2013-9-21,65,62,58,65,62,58,100,100,99,29.97,29.72,2,0,8,1.04
2013-9-22,75,60,53,62,55,-100,100,86,59,29.93,29.76,1,0,4,0.10
2013-9-23,71,60,53,62,57,53,100,90,67,30.06,29.92,0,0,2,0.02
2013-9-24,69,61,54,63,59,54,100,94,74,30.08,29.94,0,0,0,0.00
2013-9-25,61,59,56,61,59,56,100,100,100,29.95,29.88,0,0,0,1.20
2013-9-26,71,60,56,66,59,56,100,97,81,30.06,29.88,0,0,0,0.07
2013-9-27,76,60,49,63,56,49,100,90,61,30.19,30.04,0,0,0,0.07
2013-9-28,68,60,54,60,56,54,100,90,68,30.25,30.14,0,0,0,0.00
2013-9-29,72,58,50,59,52,-100,100,86,61,30.19,30.03,0,0,0,0.00
2013-9-30,71,59,52,61,56,52,100,92,68,30.10,30.01,0,0,2,0.00
2013-10-1,65,62,56,61,60,56,100,94,86,30.15,30.09,0,0,0,0.00
2013-10-2,80,62,52,66,59,52,100,89,58,30.19,30.09,1,0,4,0.00
2013-10-3,77,64,54,66,60,54,100,89,64,30.16,30.08,0,0,0,0.00
2013-10-4,79,68,59,65,63,59,100,85,57,30.17,30.11,0,0,0,0.00
2013-10-5,81,64,54,68,61,54,100,91,60,30.18,30.07,0,0,0,0.00
2013-10-6,76,64,56,66,61,56,100,91,66,30.11,29.91,2,0,5,0.03
2013-10-7,64,59,53,64,58,51,100,98,87,30.02,29.83,2,0,3,1.74
2013-10-8,69,54,46,55,51,46,100,88,59,30.20,30.01,0,0,3,0.01
2013-10-9,73,55,45,55,49,44,100,84,54,30.22,30.09,0,0,0,0.01
2013-10-10,74,55,42,59,51,42,100,88,57,30.12,30.01,2,0,7,0.00
2013-10-11,76,57,45,60,52,45,100,86,49,30.06,29.95,2,0,7,0.00
2013-10-12,74,59,50,63,56,50,100,91,67,30.09,29.98,2,0,6,0.00
2013-10-13,70,60,57,63,58,-100,100,94,79,30.22,30.09,0,0,2,0.12
2013-10-14,66,60,57,64,59,57,100,98,90,30.24,30.15,0,0,2,0.15
2013-10-15,66,58,54,60,57,54,100,96,80,30.20,30.05,0,0,0,0.03
2013-10-16,65,57,50,59,55,50,100,95,80,30.09,29.95,0,0,2,0.03
2013-10-17,64,59,57,63,59,56,100,100,95,29.99,29.85,1,0,6,0.05
2013-10-18,68,55,46,57,52,46,100,92,65,30.02,29.91,1,0,2,0.01
2013-10-19,61,54,48,55,52,47,100,92,73,29.96,29.84,0,0,0,0.00
2013-10-20,67,49,40,49,43,-100,100,83,50,30.06,29.92,0,0,3,0.00
2013-10-21,66,49,37,53,46,37,100,92,59,30.11,29.98,3,0,6,0.00
2013-10-22,65,55,50,55,52,49,100,90,68,30.00,29.79,0,0,1,0.01
2013-10-23,55,44,36,50,41,30,100,88,55,29.99,29.72,4,1,8,0.01
2013-10-24,59,42,30,41,35,29,99,78,50,30.09,29.97,2,0,5,0.00
2013-10-25,51,39,31,37,29,25,90,70,48,30.28,30.09,3,1,8,0.00
2013-10-26,56,38,24,38,31,24,100,79,41,30.27,30.00,2,0,6,0.00
2013-10-27,63,49,37,51,42,-100,100,81,59,30.09,30.00,1,0,3,0.00
2013-10-28,59,51,46,57,49,-100,100,97,86,30.22,30.07,1,0,2,0.07
2013-10-29,66,54,45,54,50,45,100,89,59,30.33,30.21,0,0,2,0.01
2013-10-30,73,60,51,59,55,51,100,85,58,30.27,30.15,0,0,4,0.01
2013-10-31,62,58,54,60,56,53,100,92,76,30.18,29.87,3,1,12,0.05
2013-11-1,76,61,54,60,58,51,100,90,51,29.87,29.64,3,0,14,0.18
2013-11-2,62,50,42,52,43,36,100,78,49,29.97,29.74,3,0,10,0.01
2013-11-3,61,45,39,41,36,-100,92,72,46,30.30,29.94,2,0,7,0.00
2013-11-4,56,42,31,35,33,31,100,75,43,30.43,30.30,2,0,3,0.00
2013-11-5,58,43,33,39,34,30,94,73,38,30.47,30.35,1,0,3,0.00
2013-11-6,64,51,42,53,49,39,100,91,67,30.37,30.11,1,0,3,0.03
2013-11-7,64,49,38,56,46,30,100,88,60,30.11,29.98,3,0,10,0.03
2013-11-8,57,39,33,30,26,22,79,62,27,30.23,30.09,2,0,10,0.01
2013-11-9,54,39,26,35,28,-100,94,68,40,30.28,30.14,3,0,8,0.00
2013-11-10,70,47,38,39,33,29,78,59,27,30.22,30.11,2,0,9,0.00
2013-11-11,62,45,33,34,30,25,79,57,34,30.27,30.10,1,0,5,0.00
2013-11-12,55,38,23,39,30,14,87,72,50,30.36,30.01,4,1,12,0.00
2013-11-13,46,29,20,19,14,10,78,57,27,30.42,30.32,2,0,10,0.00
2013-11-14,59,36,20,25,20,16,86,57,21,30.37,30.21,1,0,5,0.00
2013-11-15,48,41,31,47,34,18,100,79,49,30.24,30.13,1,0,3,0.18
2013-11-16,62,50,46,58,49,-100,100,97,81,30.22,30.12,1,0,5,0.16
2013-11-17,57,54,52,57,54,52,100,100,97,30.16,29.87,2,0,5,0.46
2013-11-18,66,53,43,57,46,31,100,78,54,29.98,29.83,5,1,17,0.18
2013-11-19,55,42,35,32,28,23,77,58,29,30.16,29.97,3,0,7,0.04
2013-11-20,49,39,32,31,28,26,82,66,44,30.34,30.16,1,0,4,0.00
2013-11-21,46,42,39,46,39,31,100,91,74,30.40,30.29,0,0,0,0.21
2013-11-22,62,52,45,60,52,45,100,99,89,30.33,30.10,2,0,9,0.13
2013-11-23,54,45,31,54,40,-100,100,86,50,30.14,30.05,6,1,14,0.01
2013-11-24,39,27,21,24,13,5,78,57,28,30.35,30.12,4,1,9,0.00
2013-11-25,40,28,19,22,13,9,80,55,30,30.37,30.18,1,0,4,0.00
2013-11-26,40,35,28,40,35,24,100,98,77,30.18,29.58,0,0,3,7.21
2013-11-27,41,30,21,41,28,17,100,93,74,30.07,29.53,7,2,13,0.49
2013-11-28,43,28,16,26,20,14,95,75,36,30.34,30.07,2,0,6,0.30
2013-11-29,52,35,23,30,25,22,100,72,38,30.48,30.33,0,0,2,0.00
2013-11-30,44,33,26,27,23,-100,89,68,47,30.49,30.24,1,0,4,0.00
2013-12-1,59,37,25,41,31,24,97,80,50,30.24,29.94,0,0,5,0.00
2013-12-2,56,40,29,43,37,29,100,89,62,29.94,29.73,1,0,5,0.00
2013-12-3,53,47,42,50,46,42,100,97,86,29.90,29.77,2,0,7,7.17
2013-12-4,61,53,48,56,52,48,100,97,82,30.01,29.89,4,0,10,0.01
2013-12-5,65,59,56,63,59,56,100,99,89,30.05,29.96,3,0,8,0.60
2013-12-6,65,62,50,64,62,50,100,99,93,30.02,29.92,5,1,14,1.16
2013-12-7,52,45,38,50,42,-100,100,94,82,30.30,29.98,2,0,7,0.72
2013-12-8,41,35,32,41,35,32,100,100,100,30.29,30.12,1,0,3,7.40
2013-12-9,52,45,35,52,45,35,100,100,100,30.13,29.96,3,0,10,1.15
2013-12-10,47,40,26,47,38,23,100,93,78,30.22,29.83,4,0,16,0.21
2013-12-11,45,31,21,30,24,20,99,77,37,30.34,30.17,0,0,2,0.05
2013-12-12,39,30,25,24,20,12,88,67,46,30.30,30.18,3,0,8,0.00
2013-12-13,47,32,19,26,20,15,90,63,38,30.26,30.12,1,0,3,0.00
2013-12-14,40,36,33,40,32,-100,100,90,68,30.15,29.70,1,0,2,0.91
2013-12-15,45,35,27,42,34,26,100,94,68,30.02,29.66,3,1,10,7.59
2013-12-16,51,36,22,36,28,22,100,75,39,30.09,29.99,1,0,5,7.59
2013-12-17,60,43,30,38,30,26,91,63,31,30.07,29.88,3,0,10,0.00
2013-12-18,47,34,26,26,19,12,84,57,34,30.21,29.99,2,0,6,0.00
2013-12-19,60,41,26,31,25,19,83,56,29,30.22,30.11,2,0,10,0.00
2013-12-20,60,49,42,47,36,26,91,61,35,30.16,30.07,3,1,9,0.00
2013-12-21,61,55,51,61,53,-100,100,97,91,30.09,29.94,2,0,13,0.64
2013-12-22,62,57,54,62,57,54,100,100,98,30.03,29.91,4,1,17,2.54
2013-12-23,54,47,34,54,46,32,100,99,96,30.12,29.98,2,0,7,0.75
2013-12-24,39,29,21,32,25,16,99,85,64,30.27,30.10,3,1,8,0.02
2013-12-25,37,25,16,21,17,15,100,73,44,30.37,30.22,1,0,3,0.00
2013-12-26,49,30,20,31,23,17,92,75,45,30.26,30.14,1,0,5,0.00
2013-12-27,49,34,22,30,26,22,100,77,45,30.35,30.24,0,0,3,0.00
2013-12-28,40,32,23,38,28,-100,100,91,72,30.33,30.03,1,0,3,0.25
2013-12-29,50,40,35,49,39,35,100,99,92,30.03,29.74,1,0,6,1.11
2013-12-30,44,36,32,42,35,32,100,98,90,30.05,29.89,0,0,3,0.01
2013-12-31,42,32,27,33,27,20,100,85,63,30.27,30.03,2,0,9,0.01
2014-1-1,43,33,24,31,27,22,100,80,50,30.27,30.03,2,0,8,0.01
2014-1-2,44,36,22,44,34,14,100,93,81,30.03,29.57,3,1,11,0.06